Altus, OK (73521)

4:35 PM CST on February 10, 2016 (GMT -0600)
Airplane Park | | Change Station
CLOSE
Current Station
Personal Weather Station
Location: Altus, OK
Elevation: 1391 ft
Nearby Weather Stations
Active Advisory: Fire Weather Warning

Elev 1391 ft 34.64 °N, 99.32 °W | Updated 20 seconds ago

Clear
Clear
81.5 °F
Feels Like 79 °F
N
5.8
Wind Variable Wind from SW
Gusts 7.4 mph

Today
High -- | Low -- °F
--% Chance of Precip.
Yesterday
High -- | Low -- °F
Precip. -- in
Pressure 29.99 in
Visibility 10.0 miles
Clouds Clear
Heat Index 79 °F
Dew Point 20 °F
Humidity 10%
Rainfall 0.00 in
Snow Depth Not available.
7:28 AM 6:15 PM
Waxing Crescent, 7% visible
METAR KLTS 102158Z AUTO 24012KT 10SM CLR 28/M08 A3000 RMK AO2 SLP154 T02751079
Pressure 29.99 in
Visibility 10.0 miles
Clouds Clear
Heat Index 79 °F
Dew Point 20 °F
Humidity 10%
Rainfall 0.00 in
Snow Depth Not available.
7:28 AM 6:15 PM
Waxing Crescent, 7% visible
METAR KLTS 102158Z AUTO 24012KT 10SM CLR 28/M08 A3000 RMK AO2 SLP154 T02751079

10-Day Weather Forecast

Almanac

Astronomy

Feb. 10, 2016 Rise Set
Actual Time
Civil Twilight
Nautical Twilight
Astronomical Twilight
Moon
Length of Visible Light
Length of Day
Tomorrow will be .
, % of the Moon is Illuminated

Today's Extremes

State Highs State Lows

Community

WunderPhotos

Upload Photos

1,891,944 photos uploaded!

WunderBlog® & News

Nearby

Air Quality

  Air Quality AQ Index Pollutant
Not available.

Snow Depth

Station Depth Elevation

Earthquake Activity

City Distance Mag. Time & Date
Minimum magnitude displayed is 2.5.

Coastal Water Temperatures

Place Temperature

Stations

Nearby Weather Stations

Station Location Temp. Windchill Dew Point Humidity Wind Precip. Elev Updated Type
                   

Watches & Warnings

Fire Weather Warning
Issued: 4:13 PM CST Feb. 10, 2016 – National Weather Service

... Red flag warning remains in effect until 7 PM CST this evening
for windy conditions... warm temperatures and low relative
humidity for windy conditions... warm temperatures are low
relative humidity...

* timing... through 7 PM.

* Wind... west to southwest 15 to 25 mph with gusts 20 to 30 mph.

* Humidity... 10 to 20 percent.

* Temperature... 70 to 85 degrees.

* Impacts... any fires that develop will likely spread rapidly.
Outdoor burning is not recommended.

Precautionary/preparedness actions...

A red flag warning means that critical fire weather conditions
are either occurring now... or will shortly. A combination of
strong winds... low relative humidity... and warm temperatures can
contribute to extreme fire behavior.